createdAt,value
2023-03-21T00:01:51.722Z,75.30
2023-03-21T00:04:19.026Z,75.30
2023-03-21T00:06:46.535Z,74.50
2023-03-21T00:09:13.292Z,74.70
2023-03-21T00:11:40.448Z,74.60
2023-03-21T00:14:08.692Z,74.20
2023-03-21T00:16:36.872Z,73.80
2023-03-21T00:19:06.423Z,73.80
2023-03-21T00:21:59.242Z,73.40
2023-03-21T00:24:22.859Z,73.30
2023-03-21T00:26:51.057Z,73.20
2023-03-21T00:29:18.088Z,73.40
2023-03-21T00:31:44.971Z,73.20
2023-03-21T00:36:39.777Z,74.50
2023-03-21T00:39:06.561Z,74.80
2023-03-21T00:41:48.631Z,73.50
2023-03-21T00:44:15.761Z,73.50
2023-03-21T00:46:54.190Z,73.50
2023-03-21T00:49:27.687Z,73.40
2023-03-21T00:51:55.193Z,73.40
2023-03-21T00:54:24.044Z,73.10
2023-03-21T00:56:50.915Z,72.90
2023-03-21T00:59:17.665Z,72.90
2023-03-21T01:01:46.588Z,73.20
2023-03-21T01:04:16.823Z,72.90
2023-03-21T01:06:44.587Z,73.00
2023-03-21T01:09:20.019Z,73.20
2023-03-21T01:11:47.069Z,73.30
2023-03-21T01:14:22.441Z,73.10
2023-03-21T01:16:53.090Z,73.10
2023-03-21T01:19:27.485Z,73.20
2023-03-21T01:21:56.821Z,73.40
2023-03-21T01:24:23.615Z,73.70
2023-03-21T01:26:50.401Z,73.70
2023-03-21T01:29:17.358Z,75.20
2023-03-21T01:31:44.379Z,73.90
2023-03-21T01:34:12.491Z,75.20
2023-03-21T01:36:39.482Z,75.10
2023-03-21T01:39:06.787Z,75.30
2023-03-21T01:41:43.797Z,75.40
2023-03-21T01:44:17.293Z,75.90
2023-03-21T01:47:03.609Z,75.70
2023-03-21T01:49:48.513Z,75.90
2023-03-21T01:52:33.486Z,75.60
2023-03-21T01:55:11.952Z,75.80
2023-03-21T01:57:58.512Z,75.20
2023-03-21T02:00:32.911Z,75.30
2023-03-21T02:03:13.670Z,75.10
2023-03-21T02:05:47.928Z,75.40
2023-03-21T02:08:14.979Z,75.10
2023-03-21T02:10:45.587Z,75.00
2023-03-21T02:13:12.674Z,74.50
2023-03-21T02:15:43.461Z,74.80
2023-03-21T02:18:22.666Z,74.40
2023-03-21T02:21:01.452Z,74.50
2023-03-21T02:23:46.102Z,74.10
2023-03-21T02:26:43.053Z,74.10
2023-03-21T02:29:36.475Z,74.00
2023-03-21T02:32:34.998Z,74.00
2023-03-21T02:35:37.106Z,74.00
2023-03-21T02:38:28.172Z,74.00
2023-03-21T02:41:38.270Z,74.50
2023-03-21T02:44:24.448Z,74.40
2023-03-21T02:47:06.827Z,74.00
2023-03-21T02:49:44.229Z,74.90
2023-03-21T02:52:35.870Z,75.30
2023-03-21T02:55:13.753Z,75.30
2023-03-21T02:57:44.032Z,75.40
2023-03-21T03:00:17.811Z,75.00
2023-03-21T03:02:45.202Z,75.30
2023-03-21T03:05:21.740Z,75.10
2023-03-21T03:08:11.930Z,74.90
2023-03-21T03:11:00.065Z,74.90
2023-03-21T03:13:54.334Z,75.50
2023-03-21T03:16:27.482Z,75.10
2023-03-21T03:19:00.158Z,75.10
2023-03-21T03:21:48.258Z,75.40
2023-03-21T03:24:20.560Z,75.70
2023-03-21T03:26:49.468Z,75.90
2023-03-21T03:29:20.959Z,75.30
2023-03-21T03:32:15.340Z,75.40
2023-03-21T03:34:49.851Z,75.50
2023-03-21T03:37:21.399Z,75.70
2023-03-21T03:40:08.191Z,75.40
2023-03-21T03:42:36.207Z,75.50
2023-03-21T03:45:05.555Z,75.60
2023-03-21T03:47:55.996Z,75.80
2023-03-21T03:50:32.648Z,75.50
2023-03-21T03:53:18.113Z,75.70
2023-03-21T03:55:45.912Z,75.10
2023-03-21T03:58:22.109Z,75.20
2023-03-21T04:00:52.722Z,75.60
2023-03-21T04:03:19.510Z,75.80
2023-03-21T04:05:46.445Z,75.60
2023-03-21T04:08:17.407Z,75.50
2023-03-21T04:10:44.426Z,75.50
2023-03-21T04:13:11.486Z,75.50
2023-03-21T04:15:38.547Z,75.50
2023-03-21T04:18:05.692Z,75.90
2023-03-21T04:20:37.080Z,76.10
2023-03-21T04:23:05.493Z,76.40
2023-03-21T04:25:38.697Z,76.30
2023-03-21T04:28:07.400Z,76.50
2023-03-21T04:30:34.213Z,76.50
2023-03-21T04:33:01.251Z,76.20
2023-03-21T04:35:28.882Z,76.00
2023-03-21T04:37:56.512Z,76.10
2023-03-21T04:40:27.197Z,76.30
2023-03-21T04:42:54.053Z,76.50
2023-03-21T04:45:20.856Z,76.60
2023-03-21T04:47:47.637Z,76.70
2023-03-21T04:50:15.871Z,76.90
2023-03-21T04:52:42.812Z,76.80
2023-03-21T04:55:10.325Z,77.00
2023-03-21T04:57:38.330Z,76.70
2023-03-21T05:00:10.480Z,76.20
2023-03-21T05:02:38.042Z,75.90
2023-03-21T05:05:05.719Z,76.20
2023-03-21T05:07:32.825Z,75.90
2023-03-21T05:10:02.249Z,75.70
2023-03-21T05:12:29.276Z,75.40
2023-03-21T05:14:56.003Z,75.30
2023-03-21T05:17:28.428Z,75.00
2023-03-21T05:19:56.440Z,75.00
2023-03-21T05:22:24.766Z,75.00
2023-03-21T05:24:51.768Z,75.40
2023-03-21T05:27:35.716Z,75.70
2023-03-21T05:30:15.278Z,75.70
2023-03-21T05:32:42.185Z,75.80
2023-03-21T05:35:10.158Z,75.60
2023-03-21T05:37:38.403Z,0.00
2023-03-21T05:40:09.301Z,75.30
2023-03-21T05:42:36.061Z,75.00
2023-03-21T05:45:03.263Z,74.60
2023-03-21T05:47:30.154Z,75.00
2023-03-21T05:49:56.957Z,74.90
2023-03-21T05:52:24.030Z,74.90
2023-03-21T05:54:50.993Z,75.00
2023-03-21T05:57:19.168Z,75.10
2023-03-21T05:59:45.954Z,74.10
2023-03-21T06:02:12.924Z,73.80
2023-03-21T06:04:39.884Z,73.80
2023-03-21T06:07:06.643Z,73.50
2023-03-21T06:09:34.352Z,73.40
2023-03-21T06:12:01.194Z,73.30
2023-03-21T06:14:28.302Z,73.40
2023-03-21T06:16:55.250Z,73.30
2023-03-21T06:19:21.991Z,73.60
2023-03-21T06:21:49.156Z,73.50
2023-03-21T06:24:17.765Z,73.40
2023-03-21T06:26:46.407Z,73.00
2023-03-21T06:29:13.538Z,73.10
2023-03-21T06:31:40.531Z,72.80
2023-03-21T06:34:07.512Z,72.90
2023-03-21T06:36:34.264Z,73.30
2023-03-21T06:39:01.083Z,73.30
2023-03-21T06:41:27.946Z,73.10
2023-03-21T06:43:54.825Z,73.10
2023-03-21T06:46:21.649Z,73.00
2023-03-21T06:48:48.485Z,73.20
2023-03-21T06:51:15.903Z,0.00
2023-03-21T06:53:42.974Z,72.90
2023-03-21T06:56:11.375Z,72.80
2023-03-21T06:58:38.448Z,72.60
2023-03-21T07:01:05.892Z,72.30
2023-03-21T07:03:34.197Z,72.40
2023-03-21T07:06:07.174Z,72.30
2023-03-21T07:08:34.218Z,71.80
2023-03-21T07:11:01.107Z,70.60
2023-03-21T07:13:27.797Z,70.10
2023-03-21T07:15:54.697Z,69.70
2023-03-21T07:18:21.706Z,70.10
2023-03-21T07:20:51.086Z,69.90
2023-03-21T07:23:19.323Z,69.80
2023-03-21T07:25:48.698Z,69.40
2023-03-21T07:28:16.872Z,68.80
2023-03-21T07:30:44.504Z,68.80
2023-03-21T07:33:12.146Z,69.00
2023-03-21T07:35:39.212Z,68.40
2023-03-21T07:38:06.349Z,68.00
2023-03-21T07:40:33.148Z,67.80
2023-03-21T07:43:00.176Z,67.40
2023-03-21T07:45:27.391Z,67.10
2023-03-21T07:47:54.640Z,67.20
2023-03-21T07:50:21.620Z,66.80
2023-03-21T07:52:49.133Z,66.90
2023-03-21T07:55:17.323Z,67.10
2023-03-21T07:57:44.474Z,67.40
2023-03-21T08:00:12.769Z,67.20
2023-03-21T08:02:40.320Z,67.10
2023-03-21T08:05:07.355Z,67.30
2023-03-21T08:07:35.995Z,67.20
2023-03-21T08:10:02.797Z,67.00
2023-03-21T08:12:29.729Z,66.30
2023-03-21T08:14:58.369Z,66.20
2023-03-21T08:17:26.146Z,65.90
2023-03-21T08:19:52.795Z,65.20
2023-03-21T08:22:19.566Z,65.50
2023-03-21T08:24:46.246Z,64.90
2023-03-21T08:27:13.152Z,65.20
2023-03-21T08:29:42.483Z,65.10
2023-03-21T08:32:09.324Z,65.20
2023-03-21T08:34:36.601Z,65.10
2023-03-21T08:37:04.310Z,65.10
2023-03-21T08:39:31.167Z,65.30
2023-03-21T08:41:58.092Z,65.20
2023-03-21T08:44:25.999Z,65.20
2023-03-21T08:46:53.216Z,65.00
2023-03-21T08:49:20.083Z,65.20
2023-03-21T08:51:47.003Z,66.00
2023-03-21T08:54:21.715Z,66.00
2023-03-21T08:56:48.753Z,66.50
2023-03-21T08:59:15.767Z,68.70
2023-03-21T09:01:42.626Z,70.70
2023-03-21T09:04:11.147Z,71.00
2023-03-21T09:06:43.021Z,71.20
2023-03-21T09:09:09.848Z,71.30
2023-03-21T09:11:39.372Z,71.50
2023-03-21T09:14:06.152Z,71.20
2023-03-21T09:16:33.297Z,71.00
2023-03-21T09:19:00.438Z,70.90
2023-03-21T09:21:28.253Z,71.00
2023-03-21T09:24:00.575Z,70.80
2023-03-21T09:26:28.184Z,71.10
2023-03-21T09:28:55.946Z,0.00
2023-03-21T09:31:23.501Z,71.10
2023-03-21T09:33:51.470Z,71.10
2023-03-21T09:36:20.855Z,71.00
2023-03-21T09:38:48.914Z,71.20
2023-03-21T09:41:35.238Z,71.00
2023-03-21T09:44:04.810Z,69.90
2023-03-21T09:46:47.825Z,69.50
2023-03-21T09:49:39.619Z,69.50
2023-03-21T09:52:26.771Z,69.30
2023-03-21T09:54:55.640Z,68.90
2023-03-21T09:57:32.111Z,68.70
2023-03-21T10:00:08.672Z,68.90
2023-03-21T10:02:48.028Z,69.00
2023-03-21T10:05:18.235Z,68.20
2023-03-21T10:07:58.508Z,68.00
2023-03-21T10:10:28.997Z,67.70
2023-03-21T10:12:56.872Z,67.80
2023-03-21T10:15:26.765Z,67.30
2023-03-21T10:18:01.099Z,67.20
2023-03-21T10:20:32.278Z,67.20
2023-03-21T10:23:01.243Z,67.30
2023-03-21T10:25:37.878Z,67.20
2023-03-21T10:28:07.474Z,66.90
2023-03-21T10:30:48.860Z,66.60
2023-03-21T10:33:20.561Z,66.40
2023-03-21T10:35:55.574Z,66.00
2023-03-21T10:38:25.993Z,65.80
2023-03-21T10:40:53.278Z,65.00
2023-03-21T10:43:26.180Z,65.60
2023-03-21T10:45:54.839Z,64.20
2023-03-21T10:48:22.331Z,62.60
2023-03-21T10:50:57.801Z,60.90
2023-03-21T10:53:35.879Z,59.60
2023-03-21T10:56:09.292Z,59.10
2023-03-21T10:58:46.917Z,59.20
2023-03-21T11:01:26.063Z,58.70
2023-03-21T11:03:58.340Z,58.20
2023-03-21T11:06:33.563Z,57.30
2023-03-21T11:09:16.107Z,56.50
2023-03-21T11:12:03.101Z,56.20
2023-03-21T11:14:51.057Z,56.10
2023-03-21T11:17:18.054Z,55.60
2023-03-21T11:19:53.733Z,55.70
2023-03-21T11:22:23.829Z,56.00
2023-03-21T11:24:53.309Z,53.80
2023-03-21T11:27:21.126Z,53.80
2023-03-21T11:29:51.099Z,53.50
2023-03-21T11:32:31.031Z,52.00
2023-03-21T11:35:07.154Z,52.20
2023-03-21T11:37:42.181Z,51.70
2023-03-21T11:40:25.894Z,51.40
2023-03-21T11:42:57.834Z,51.00
2023-03-21T11:45:27.587Z,50.20
2023-03-21T11:47:56.456Z,49.90
2023-03-21T11:50:35.328Z,48.60
2023-03-21T11:53:20.678Z,48.10
2023-03-21T11:55:58.847Z,47.40
2023-03-21T11:58:25.708Z,47.50
2023-03-21T12:01:16.327Z,47.40
2023-03-21T12:04:07.959Z,0.00
2023-03-21T12:06:45.672Z,0.00
2023-03-21T12:09:47.175Z,46.70
2023-03-21T12:12:38.713Z,47.00
2023-03-21T12:15:19.906Z,46.40
2023-03-21T12:18:04.735Z,46.40
2023-03-21T12:20:44.787Z,0.00
2023-03-21T12:23:26.202Z,46.20
2023-03-21T12:26:05.802Z,46.90
2023-03-21T12:29:02.948Z,47.20
2023-03-21T12:31:55.178Z,46.30
2023-03-21T12:34:40.714Z,47.00
2023-03-21T12:37:10.657Z,44.80
2023-03-21T12:39:40.340Z,45.20
2023-03-21T12:42:39.916Z,45.40
2023-03-21T12:45:24.711Z,47.70
2023-03-21T12:48:03.786Z,48.50
2023-03-21T12:50:37.437Z,48.70
2023-03-21T12:53:36.084Z,48.40
2023-03-21T12:56:07.522Z,48.10
2023-03-21T12:58:48.057Z,48.50
2023-03-21T13:01:16.831Z,47.60
2023-03-21T13:03:52.731Z,48.10
2023-03-21T13:06:23.055Z,47.90
2023-03-21T13:09:04.908Z,47.40
2023-03-21T13:11:33.776Z,47.50
2023-03-21T13:14:18.272Z,47.40
2023-03-21T13:17:04.529Z,47.20
2023-03-21T13:19:43.878Z,47.40
2023-03-21T13:22:31.456Z,47.40
2023-03-21T13:25:08.505Z,47.40
2023-03-21T13:27:39.281Z,46.80
2023-03-21T13:30:15.043Z,46.40
2023-03-21T13:32:48.583Z,45.90
2023-03-21T13:35:30.654Z,46.50
2023-03-21T13:38:06.767Z,46.20
2023-03-21T13:40:50.132Z,45.30
2023-03-21T13:43:44.741Z,45.50
2023-03-21T13:46:15.596Z,46.40
2023-03-21T13:49:03.974Z,46.20
2023-03-21T13:51:37.059Z,45.50
2023-03-21T13:54:04.911Z,46.00
2023-03-21T13:56:50.361Z,45.10
2023-03-21T13:59:18.403Z,45.70
2023-03-21T14:02:13.199Z,45.50
2023-03-21T14:04:53.335Z,45.60
2023-03-21T14:07:27.776Z,45.60
2023-03-21T14:10:00.358Z,45.30
2023-03-21T14:12:36.826Z,45.40
2023-03-21T14:15:17.322Z,45.40
2023-03-21T14:18:28.115Z,44.50
2023-03-21T14:21:05.088Z,44.30
2023-03-21T14:23:32.167Z,43.60
2023-03-21T14:25:59.140Z,42.90
2023-03-21T14:28:29.452Z,43.70
2023-03-21T14:31:00.177Z,43.40
2023-03-21T14:33:35.204Z,43.30
2023-03-21T14:36:08.854Z,43.50
2023-03-21T14:38:37.346Z,43.50
2023-03-21T14:41:04.967Z,44.80
2023-03-21T14:43:34.675Z,44.80
2023-03-21T14:46:02.060Z,43.60
2023-03-21T14:48:31.566Z,43.10
2023-03-21T14:51:03.758Z,43.20
2023-03-21T14:53:37.623Z,44.50
2023-03-21T14:56:25.694Z,43.30
2023-03-21T14:58:53.328Z,43.10
2023-03-21T15:01:32.603Z,43.20
2023-03-21T15:04:00.952Z,44.40
2023-03-21T15:06:27.762Z,42.90
2023-03-21T15:08:59.835Z,44.60
2023-03-21T15:11:53.390Z,45.00
2023-03-21T15:14:26.194Z,44.70
2023-03-21T15:16:56.747Z,44.60
2023-03-21T15:19:36.279Z,44.70
2023-03-21T15:22:18.077Z,44.70
2023-03-21T15:24:50.471Z,43.90
2023-03-21T15:27:20.276Z,43.70
2023-03-21T15:29:50.417Z,43.90
2023-03-21T15:32:20.375Z,43.70
2023-03-21T15:34:47.344Z,44.00
2023-03-21T15:37:23.462Z,43.50
2023-03-21T15:39:52.435Z,0.00
2023-03-21T15:42:30.005Z,43.90
2023-03-21T15:45:02.825Z,44.50
2023-03-21T15:47:49.850Z,44.70
2023-03-21T15:50:35.483Z,45.10
2023-03-21T15:53:06.885Z,45.10
2023-03-21T15:55:49.790Z,45.50
2023-03-21T15:58:23.097Z,45.40
2023-03-21T16:00:55.644Z,45.00
2023-03-21T16:03:27.452Z,45.00
2023-03-21T16:06:17.225Z,45.30
2023-03-21T16:08:50.580Z,45.30
2023-03-21T16:11:25.035Z,45.20
2023-03-21T16:13:53.460Z,45.50
2023-03-21T16:16:23.135Z,45.90
2023-03-21T16:18:50.574Z,45.70
2023-03-21T16:21:21.452Z,45.80
2023-03-21T16:23:48.590Z,45.40
2023-03-21T16:26:21.537Z,45.60
2023-03-21T16:28:48.955Z,46.00
2023-03-21T16:31:18.172Z,45.60
2023-03-21T16:33:45.646Z,45.80
2023-03-21T16:36:29.602Z,45.70
2023-03-21T16:38:59.079Z,45.80
2023-03-21T16:41:27.740Z,45.30
2023-03-21T16:43:55.264Z,46.10
2023-03-21T16:46:26.785Z,45.70
2023-03-21T16:49:01.668Z,46.00
2023-03-21T16:51:36.262Z,45.80
2023-03-21T16:54:03.424Z,46.20
2023-03-21T16:56:45.383Z,46.20
2023-03-21T16:59:13.933Z,46.00
2023-03-21T17:01:41.948Z,46.60
2023-03-21T17:04:09.296Z,47.00
2023-03-21T17:06:47.477Z,46.90
2023-03-21T17:09:16.332Z,47.20
2023-03-21T17:11:48.479Z,47.30
2023-03-21T17:14:18.810Z,47.20
2023-03-21T17:16:46.129Z,47.60
2023-03-21T17:19:14.997Z,47.70
2023-03-21T17:21:42.358Z,47.10
2023-03-21T17:24:09.579Z,47.50
2023-03-21T17:26:36.641Z,47.70
2023-03-21T17:29:04.175Z,47.40
2023-03-21T17:31:35.084Z,47.40
2023-03-21T17:34:03.564Z,47.40
2023-03-21T17:36:34.318Z,47.60
2023-03-21T17:39:01.530Z,47.70
2023-03-21T17:41:29.509Z,47.70
2023-03-21T17:43:56.989Z,47.70
2023-03-21T17:46:25.728Z,48.10
2023-03-21T17:48:53.169Z,48.50
2023-03-21T17:51:22.994Z,48.30
2023-03-21T17:53:51.166Z,48.50
2023-03-21T17:56:23.201Z,48.40
2023-03-21T17:58:50.039Z,48.50
2023-03-21T18:01:16.844Z,48.60
2023-03-21T18:03:43.812Z,49.00
2023-03-21T18:06:28.905Z,49.40
2023-03-21T18:08:56.003Z,49.40
2023-03-21T18:11:24.140Z,49.80
2023-03-21T18:14:03.608Z,50.20
2023-03-21T18:16:37.079Z,50.00
2023-03-21T18:19:03.989Z,49.90
2023-03-21T18:21:32.910Z,50.50
2023-03-21T18:23:59.798Z,50.20
2023-03-21T18:26:26.602Z,50.40
2023-03-21T18:29:36.677Z,50.20
2023-03-21T18:31:40.404Z,50.50
2023-03-21T18:34:07.383Z,50.70
2023-03-21T18:36:34.498Z,50.70
2023-03-21T18:39:03.491Z,50.60
2023-03-21T18:41:30.667Z,52.10
2023-03-21T18:44:05.188Z,52.30
2023-03-21T18:46:41.720Z,52.10
2023-03-21T18:49:56.135Z,52.60
2023-03-21T18:51:55.805Z,52.90
2023-03-21T18:54:23.501Z,53.20
2023-03-21T18:57:34.583Z,53.50
2023-03-21T18:59:39.345Z,53.60
2023-03-21T19:02:07.107Z,53.70
2023-03-21T19:04:34.185Z,53.80
2023-03-21T19:07:01.311Z,53.80
2023-03-21T19:09:31.810Z,53.80
2023-03-21T19:11:59.944Z,54.00
2023-03-21T19:14:26.800Z,54.30
2023-03-21T19:17:55.581Z,54.20
2023-03-21T19:19:41.884Z,54.30
2023-03-21T19:22:08.689Z,54.50
2023-03-21T19:24:35.655Z,54.90
2023-03-21T19:27:02.880Z,54.90
2023-03-21T19:29:29.679Z,54.90
2023-03-21T19:31:59.564Z,55.20
2023-03-21T19:34:27.661Z,55.10
2023-03-21T19:36:55.022Z,55.10
2023-03-21T19:39:22.879Z,55.50
2023-03-21T19:41:55.424Z,55.30
2023-03-21T19:44:32.834Z,55.20
2023-03-21T19:47:01.288Z,55.40
2023-03-21T19:49:45.664Z,55.40
2023-03-21T19:52:14.957Z,55.30
2023-03-21T19:54:41.704Z,55.70
2023-03-21T19:57:09.764Z,55.80
2023-03-21T19:59:37.178Z,55.80
2023-03-21T20:02:27.108Z,55.90
2023-03-21T20:04:51.883Z,55.90
2023-03-21T20:07:19.843Z,55.80
2023-03-21T20:09:52.519Z,55.70
2023-03-21T20:12:22.011Z,55.70
2023-03-21T20:14:49.256Z,55.70
2023-03-21T20:17:16.749Z,55.80
2023-03-21T20:19:43.794Z,55.80
2023-03-21T20:22:21.837Z,55.80
2023-03-21T20:24:51.783Z,56.30
2023-03-21T20:27:25.195Z,56.00
2023-03-21T20:30:10.098Z,56.20
2023-03-21T20:32:39.012Z,55.90
2023-03-21T20:35:17.364Z,55.80
2023-03-21T20:37:49.727Z,55.70
2023-03-21T20:40:18.607Z,55.70
2023-03-21T20:42:48.776Z,55.90
2023-03-21T20:45:17.030Z,55.90
2023-03-21T20:47:43.986Z,55.90
2023-03-21T20:50:14.045Z,55.70
2023-03-21T20:53:06.972Z,56.00
2023-03-21T20:55:31.442Z,56.00
2023-03-21T20:58:01.855Z,55.90
2023-03-21T21:00:29.549Z,56.20
2023-03-21T21:02:57.827Z,56.40
2023-03-21T21:05:30.718Z,56.60
2023-03-21T21:08:01.026Z,56.10
2023-03-21T21:10:28.756Z,56.10
2023-03-21T21:12:55.717Z,55.90
2023-03-21T21:15:22.504Z,56.20
2023-03-21T21:18:06.985Z,56.20
2023-03-21T21:20:35.306Z,56.10
2023-03-21T21:23:02.323Z,56.20
2023-03-21T21:25:31.898Z,56.20
2023-03-21T21:27:58.780Z,0.00
2023-03-21T21:30:25.494Z,56.30
2023-03-21T21:32:52.281Z,56.30
2023-03-21T21:35:20.569Z,56.60
2023-03-21T21:37:47.586Z,56.70
2023-03-21T21:40:18.227Z,56.80
2023-03-21T21:42:45.437Z,56.50
2023-03-21T21:45:13.359Z,56.30
2023-03-21T21:47:40.761Z,56.40
2023-03-21T21:50:08.217Z,56.50
2023-03-21T21:52:35.331Z,56.70
2023-03-21T21:55:04.010Z,56.60
2023-03-21T21:57:34.329Z,56.70
2023-03-21T22:00:06.447Z,56.70
2023-03-21T22:02:33.433Z,57.00
2023-03-21T22:05:00.605Z,57.00
2023-03-21T22:07:27.834Z,57.00
2023-03-21T22:09:54.796Z,57.40
2023-03-21T22:12:21.634Z,57.30
2023-03-21T22:14:48.433Z,57.40
2023-03-21T22:17:15.278Z,57.30
2023-03-21T22:19:42.618Z,57.50
2023-03-21T22:22:10.249Z,57.40
2023-03-21T22:24:37.549Z,57.80
2023-03-21T22:27:04.719Z,57.80
2023-03-21T22:29:31.599Z,57.70
2023-03-21T22:31:58.383Z,57.80
2023-03-21T22:34:26.457Z,58.10
2023-03-21T22:36:53.571Z,58.10
2023-03-21T22:39:26.042Z,58.20
2023-03-21T22:41:54.480Z,58.10
2023-03-21T22:44:21.302Z,58.70
2023-03-21T22:46:48.161Z,58.30
2023-03-21T22:49:15.512Z,58.60
2023-03-21T22:51:43.796Z,58.90
2023-03-21T22:54:11.014Z,59.20
2023-03-21T22:56:37.800Z,59.20
2023-03-21T22:59:04.660Z,59.60
2023-03-21T23:01:31.609Z,59.40
2023-03-21T23:03:58.539Z,59.60
2023-03-21T23:06:25.543Z,59.30
2023-03-21T23:08:52.271Z,59.50
2023-03-21T23:11:19.049Z,59.50
2023-03-21T23:13:47.567Z,59.30
2023-03-21T23:16:16.709Z,59.20
2023-03-21T23:18:43.655Z,59.30
2023-03-21T23:21:13.360Z,59.70
2023-03-21T23:23:41.783Z,59.60
2023-03-21T23:26:12.417Z,59.90
2023-03-21T23:28:39.160Z,59.70
2023-03-21T23:31:11.201Z,60.00
2023-03-21T23:33:38.000Z,60.30
2023-03-21T23:36:05.582Z,60.00
2023-03-21T23:38:32.777Z,59.90
2023-03-21T23:41:04.600Z,59.90
2023-03-21T23:43:31.495Z,59.90
2023-03-21T23:45:59.726Z,59.90
2023-03-21T23:48:29.332Z,59.70
2023-03-21T23:50:56.617Z,59.50
2023-03-21T23:53:23.589Z,59.80
2023-03-21T23:55:51.985Z,60.00
2023-03-21T23:58:20.104Z,59.90
